createdAt,value
2019-06-10T00:01:16.537Z,3.80
2019-06-10T00:03:47.184Z,4.95
2019-06-10T00:06:20.809Z,3.80
2019-06-10T00:08:50.604Z,2.55
2019-06-10T00:11:21.461Z,4.53
2019-06-10T00:13:52.166Z,3.67
2019-06-10T00:16:23.197Z,3.55
2019-06-10T00:18:53.977Z,5.67
2019-06-10T00:21:24.747Z,5.10
2019-06-10T00:23:55.385Z,3.85
2019-06-10T00:26:26.087Z,5.03
2019-06-10T00:28:57.749Z,6.78
2019-06-10T00:31:31.079Z,3.33
2019-06-10T00:34:02.983Z,3.15
2019-06-10T00:36:33.026Z,3.40
2019-06-10T00:39:05.589Z,3.17
2019-06-10T00:41:35.691Z,6.67
2019-06-10T00:44:06.985Z,3.05
2019-06-10T00:46:40.740Z,2.45
2019-06-10T00:49:14.466Z,3.83
2019-06-10T00:51:42.464Z,6.35
2019-06-10T00:54:15.493Z,4.55
2019-06-10T00:56:45.152Z,2.45
2019-06-10T00:59:15.856Z,4.50
2019-06-10T01:01:46.493Z,3.35
2019-06-10T01:04:17.207Z,5.65
2019-06-10T01:06:48.032Z,4.20
2019-06-10T01:09:19.034Z,3.05
2019-06-10T01:11:51.682Z,2.22
2019-06-10T01:14:22.187Z,6.10
2019-06-10T01:16:52.845Z,3.70
2019-06-10T01:19:23.848Z,5.62
2019-06-10T01:21:54.516Z,2.30
2019-06-10T01:24:25.188Z,2.60
2019-06-10T01:26:55.965Z,4.67
2019-06-10T01:29:31.292Z,2.98
2019-06-10T01:32:01.742Z,3.75
2019-06-10T01:34:32.630Z,3.50
2019-06-10T01:37:03.294Z,3.70
2019-06-10T01:39:34.140Z,2.95
2019-06-10T01:42:06.117Z,2.60
2019-06-10T01:44:36.889Z,2.05
2019-06-10T01:47:08.700Z,4.85
2019-06-10T01:49:41.211Z,3.80
2019-06-10T01:52:12.435Z,3.83
2019-06-10T01:54:43.880Z,3.45
2019-06-10T01:57:15.731Z,4.28
2019-06-10T01:59:46.611Z,4.00
2019-06-10T02:02:19.342Z,5.40
2019-06-10T02:04:51.752Z,2.80
2019-06-10T02:07:23.196Z,3.22
2019-06-10T02:09:53.992Z,2.65
2019-06-10T02:12:24.969Z,1.82
2019-06-10T02:14:55.620Z,2.62
2019-06-10T02:17:28.007Z,2.80
2019-06-10T02:19:58.270Z,1.72
2019-06-10T02:22:31.828Z,5.78
2019-06-10T02:25:02.674Z,4.53
2019-06-10T02:27:33.456Z,5.00
2019-06-10T02:30:13.618Z,9.85
2019-06-10T02:32:37.805Z,3.58
2019-06-10T02:35:14.670Z,1.55
2019-06-10T02:37:44.056Z,2.30
2019-06-10T02:40:16.663Z,3.22
2019-06-10T02:42:48.750Z,1.47
2019-06-10T02:45:23.713Z,2.35
2019-06-10T02:47:53.297Z,3.33
2019-06-10T02:50:32.433Z,2.70
2019-06-10T02:52:58.805Z,3.25
2019-06-10T02:55:34.195Z,2.12
2019-06-10T02:58:03.971Z,1.47
2019-06-10T03:00:42.632Z,6.47
2019-06-10T03:03:06.074Z,1.85
2019-06-10T03:05:40.787Z,2.62
2019-06-10T03:08:08.803Z,2.58
2019-06-10T03:10:39.493Z,1.90
2019-06-10T03:13:12.561Z,2.35
2019-06-10T03:15:43.448Z,3.12
2019-06-10T03:18:15.729Z,4.05
2019-06-10T03:20:46.465Z,4.37
2019-06-10T03:23:17.979Z,3.05
2019-06-10T03:25:50.017Z,2.95
2019-06-10T03:28:23.921Z,2.87
2019-06-10T03:30:58.642Z,3.72
2019-06-10T03:33:34.604Z,3.08
2019-06-10T03:35:58.817Z,2.80
2019-06-10T03:38:29.475Z,3.77
2019-06-10T03:41:00.250Z,4.33
2019-06-10T03:43:33.027Z,2.67
2019-06-10T03:46:03.422Z,3.25
2019-06-10T03:48:34.316Z,5.72
2019-06-10T03:51:05.036Z,1.75
2019-06-10T03:53:35.765Z,6.75
2019-06-10T03:56:07.725Z,1.92
2019-06-10T03:58:38.572Z,1.00
2019-06-10T04:01:12.104Z,0.98
2019-06-10T04:03:42.810Z,2.33
2019-06-10T04:06:14.127Z,2.98
2019-06-10T04:08:45.136Z,3.52
2019-06-10T04:11:16.014Z,2.17
2019-06-10T04:13:54.494Z,2.87
2019-06-10T04:16:19.686Z,2.33
2019-06-10T04:18:53.260Z,1.75
2019-06-10T04:21:34.380Z,1.62
2019-06-10T04:24:05.371Z,5.85
2019-06-10T04:26:37.394Z,2.83
2019-06-10T04:29:08.205Z,4.50
2019-06-10T04:31:42.470Z,1.50
2019-06-10T04:34:13.498Z,2.30
2019-06-10T04:36:44.615Z,1.60
2019-06-10T04:39:15.285Z,3.35
2019-06-10T04:41:46.144Z,4.15
2019-06-10T04:44:16.872Z,2.75
2019-06-10T04:46:47.866Z,1.72
2019-06-10T04:49:18.721Z,1.75
2019-06-10T04:51:49.680Z,4.33
2019-06-10T04:54:21.394Z,3.70
2019-06-10T04:56:52.895Z,4.05
2019-06-10T04:59:25.863Z,4.78
2019-06-10T05:01:55.748Z,2.62
2019-06-10T05:04:27.139Z,5.85
2019-06-10T05:06:58.425Z,2.50
2019-06-10T05:09:29.419Z,5.20
2019-06-10T05:12:02.850Z,2.58
2019-06-10T05:14:33.697Z,3.30
2019-06-10T05:17:04.436Z,1.22
2019-06-10T05:19:35.158Z,2.62
2019-06-10T05:22:05.816Z,2.85
2019-06-10T05:24:36.446Z,2.60
2019-06-10T05:27:07.139Z,2.92
2019-06-10T05:29:37.793Z,2.80
2019-06-10T05:32:08.863Z,2.00
2019-06-10T05:34:39.589Z,2.40
2019-06-10T05:37:12.018Z,3.15
2019-06-10T05:39:42.491Z,2.42
2019-06-10T05:42:13.142Z,3.65
2019-06-10T05:44:44.365Z,5.15
2019-06-10T05:47:15.126Z,2.95
2019-06-10T05:49:46.203Z,2.67
2019-06-10T05:52:17.127Z,4.67
2019-06-10T05:54:48.055Z,3.52
2019-06-10T05:57:18.780Z,3.45
2019-06-10T05:59:49.667Z,2.42
2019-06-10T06:02:22.318Z,2.10
2019-06-10T06:04:53.065Z,3.00
2019-06-10T06:07:24.990Z,5.25
2019-06-10T06:09:55.703Z,5.65
2019-06-10T06:12:27.365Z,7.22
2019-06-10T06:14:58.245Z,8.10
2019-06-10T06:17:32.772Z,3.70
2019-06-10T06:20:02.914Z,4.72
2019-06-10T06:22:35.235Z,5.83
2019-06-10T06:25:07.979Z,4.33
2019-06-10T06:27:38.635Z,3.12
2019-06-10T06:30:13.763Z,4.17
2019-06-10T06:32:43.569Z,1.82
2019-06-10T06:35:13.877Z,2.92
2019-06-10T06:37:45.178Z,2.33
2019-06-10T06:40:16.461Z,2.65
2019-06-10T06:42:47.392Z,4.00
2019-06-10T06:45:19.556Z,3.40
2019-06-10T06:47:52.448Z,1.70
2019-06-10T06:50:25.407Z,1.80
2019-06-10T06:53:19.717Z,4.40
2019-06-10T06:55:26.827Z,4.00
2019-06-10T06:57:57.519Z,2.35
2019-06-10T07:00:48.945Z,4.22
2019-06-10T07:03:04.174Z,1.85
2019-06-10T07:05:35.970Z,1.95
2019-06-10T07:08:07.625Z,2.02
2019-06-10T07:10:38.812Z,1.27
2019-06-10T07:13:09.667Z,2.22
2019-06-10T07:15:46.960Z,1.70
2019-06-10T07:18:15.226Z,4.35
2019-06-10T07:20:46.103Z,2.12
2019-06-10T07:23:18.296Z,7.05
2019-06-10T07:25:49.054Z,4.42
2019-06-10T07:28:20.142Z,1.67
2019-06-10T07:30:52.702Z,5.15
2019-06-10T07:33:23.304Z,4.85
2019-06-10T07:35:56.611Z,3.58
2019-06-10T07:38:26.541Z,1.92
2019-06-10T07:40:57.505Z,2.67
2019-06-10T07:43:28.266Z,2.98
2019-06-10T07:45:59.058Z,2.92
2019-06-10T07:48:29.832Z,2.12
2019-06-10T07:51:02.708Z,2.27
2019-06-10T07:53:34.386Z,1.98
2019-06-10T07:56:05.149Z,1.42
2019-06-10T07:58:37.179Z,1.98
2019-06-10T08:01:08.066Z,1.45
2019-06-10T08:03:39.850Z,3.12
2019-06-10T08:06:12.660Z,2.27
2019-06-10T08:08:45.277Z,2.15
2019-06-10T08:11:14.930Z,3.22
2019-06-10T08:13:46.465Z,2.40
2019-06-10T08:16:17.858Z,1.70
2019-06-10T08:19:16.066Z,3.33
2019-06-10T08:21:22.863Z,2.35
2019-06-10T08:23:54.471Z,1.75
2019-06-10T08:26:25.537Z,3.60
2019-06-10T08:28:56.483Z,1.98
2019-06-10T08:31:27.344Z,1.72
2019-06-10T08:33:58.365Z,2.22
2019-06-10T08:36:29.279Z,4.35
2019-06-10T08:39:00.129Z,7.00
2019-06-10T08:41:32.266Z,2.47
2019-06-10T08:44:03.614Z,3.08
2019-06-10T08:46:34.447Z,1.55
2019-06-10T08:49:04.841Z,2.12
2019-06-10T08:51:37.101Z,1.50
2019-06-10T08:54:08.274Z,2.12
2019-06-10T08:56:40.070Z,2.10
2019-06-10T08:59:12.425Z,2.35
2019-06-10T09:01:48.324Z,0.70
2019-06-10T09:04:15.524Z,3.10
2019-06-10T09:06:49.559Z,3.52
2019-06-10T09:09:18.938Z,2.77
2019-06-10T09:11:52.015Z,2.27
2019-06-10T09:14:23.496Z,2.12
2019-06-10T09:16:54.630Z,1.80
2019-06-10T09:19:25.399Z,3.45
2019-06-10T09:21:56.609Z,1.72
2019-06-10T09:24:27.663Z,2.37
2019-06-10T09:26:58.553Z,2.85
2019-06-10T09:29:29.235Z,2.25
2019-06-10T09:32:02.034Z,3.33
2019-06-10T09:34:33.111Z,3.87
2019-06-10T09:37:04.159Z,3.87
2019-06-10T09:39:35.200Z,2.50
2019-06-10T09:42:06.722Z,1.60
2019-06-10T09:44:37.845Z,3.37
2019-06-10T09:47:08.862Z,5.30
2019-06-10T09:49:41.254Z,3.40
2019-06-10T09:52:13.447Z,4.28
2019-06-10T09:54:48.813Z,2.95
2019-06-10T09:57:16.637Z,5.92
2019-06-10T09:59:51.395Z,5.33
2019-06-10T10:02:19.517Z,8.63
2019-06-10T10:04:53.882Z,12.78
2019-06-10T10:07:22.737Z,5.37
2019-06-10T10:09:57.229Z,3.65
2019-06-10T10:12:26.087Z,2.15
2019-06-10T10:14:56.729Z,4.87
2019-06-10T10:17:27.445Z,3.45
2019-06-10T10:19:58.107Z,3.37
2019-06-10T10:22:29.036Z,4.62
2019-06-10T10:25:02.751Z,6.17
2019-06-10T10:27:32.313Z,12.35
2019-06-10T10:30:03.915Z,4.72
2019-06-10T10:32:34.719Z,2.65
2019-06-10T10:35:06.488Z,4.60
2019-06-10T10:37:37.221Z,4.10
2019-06-10T10:40:08.359Z,2.58
2019-06-10T10:42:45.008Z,2.30
2019-06-10T10:45:13.260Z,3.95
2019-06-10T10:47:44.978Z,3.92
2019-06-10T10:50:16.048Z,3.77
2019-06-10T10:52:48.193Z,5.15
2019-06-10T10:55:22.479Z,3.60
2019-06-10T10:57:55.753Z,5.83
2019-06-10T11:00:26.356Z,4.72
2019-06-10T11:02:57.223Z,3.42
2019-06-10T11:05:33.850Z,4.05
2019-06-10T11:08:04.860Z,9.00
2019-06-10T11:10:36.115Z,6.10
2019-06-10T11:13:09.042Z,15.15
2019-06-10T11:15:39.724Z,11.60
2019-06-10T11:18:12.599Z,8.00
2019-06-10T11:20:45.210Z,11.25
2019-06-10T11:23:16.091Z,11.50
2019-06-10T11:25:47.766Z,9.93
2019-06-10T11:28:18.526Z,9.53
2019-06-10T11:30:55.462Z,6.90
2019-06-10T11:33:24.262Z,6.80
2019-06-10T11:35:57.477Z,7.40
2019-06-10T11:38:27.021Z,10.13
2019-06-10T11:40:59.966Z,6.97
2019-06-10T11:43:32.878Z,10.30
2019-06-10T11:46:06.978Z,7.37
2019-06-10T11:48:37.417Z,9.08
2019-06-10T11:51:12.965Z,7.40
2019-06-10T11:53:44.180Z,8.13
2019-06-10T11:56:15.419Z,14.53
2019-06-10T11:58:47.698Z,12.75
2019-06-10T12:01:18.816Z,17.73
2019-06-10T12:03:51.110Z,11.43
2019-06-10T12:06:22.877Z,9.53
2019-06-10T12:09:02.819Z,10.65
2019-06-10T12:11:34.221Z,11.83
2019-06-10T12:14:04.841Z,15.43
2019-06-10T12:19:07.290Z,9.58
2019-06-10T12:21:38.035Z,8.75
2019-06-10T12:24:08.757Z,5.55
2019-06-10T12:26:43.231Z,9.53
2019-06-10T12:29:12.435Z,10.90
2019-06-10T12:31:43.332Z,8.58
2019-06-10T12:34:15.226Z,10.35
2019-06-10T12:36:45.961Z,16.82
2019-06-10T12:39:17.426Z,8.13
2019-06-10T12:41:48.480Z,12.82
2019-06-10T12:44:19.167Z,10.40
2019-06-10T12:46:53.315Z,7.92
2019-06-10T12:49:22.017Z,10.82
2019-06-10T12:51:55.944Z,6.53
2019-06-10T12:54:28.118Z,7.40
2019-06-10T12:56:59.945Z,5.58
2019-06-10T12:59:32.466Z,7.35
2019-06-10T13:02:15.373Z,5.67
2019-06-10T13:04:36.230Z,3.83
2019-06-10T13:07:12.386Z,6.33
2019-06-10T13:09:43.880Z,3.35
2019-06-10T13:12:14.194Z,4.05
2019-06-10T13:14:45.016Z,6.37
2019-06-10T13:17:15.970Z,5.15
2019-06-10T13:19:46.780Z,5.47
2019-06-10T13:22:17.448Z,5.03
2019-06-10T13:24:48.200Z,5.58
2019-06-10T13:27:18.946Z,4.83
2019-06-10T13:29:49.620Z,3.85
2019-06-10T13:32:21.535Z,5.28
2019-06-10T13:34:52.797Z,3.42
2019-06-10T13:37:23.577Z,2.45
2019-06-10T13:39:54.258Z,3.50
2019-06-10T13:42:24.933Z,5.53
2019-06-10T13:44:55.805Z,6.75
2019-06-10T13:47:26.487Z,7.25
2019-06-10T13:49:58.877Z,5.28
2019-06-10T13:52:29.159Z,7.83
2019-06-10T13:55:01.306Z,4.97
2019-06-10T13:57:32.458Z,6.12
2019-06-10T14:00:05.626Z,3.70
2019-06-10T14:02:35.343Z,3.85
2019-06-10T14:05:12.748Z,2.42
2019-06-10T14:07:40.282Z,4.80
2019-06-10T14:10:17.794Z,5.10
2019-06-10T14:12:47.690Z,5.43
2019-06-10T14:15:17.190Z,5.58
2019-06-10T14:17:49.296Z,5.25
2019-06-10T14:20:20.060Z,4.58
2019-06-10T14:22:52.831Z,6.50
2019-06-10T14:25:23.202Z,4.03
2019-06-10T14:27:54.506Z,5.62
2019-06-10T14:30:25.163Z,4.42
2019-06-10T14:32:55.858Z,3.60
2019-06-10T14:35:26.975Z,6.50
2019-06-10T14:37:57.724Z,3.45
2019-06-10T14:40:28.433Z,4.08
2019-06-10T14:42:59.078Z,4.03
2019-06-10T14:45:29.848Z,4.80
2019-06-10T14:48:02.736Z,6.60
2019-06-10T14:50:32.545Z,4.78
2019-06-10T14:53:03.224Z,2.95
2019-06-10T14:55:34.084Z,5.92
2019-06-10T14:58:05.373Z,2.77
2019-06-10T15:00:36.840Z,3.35
2019-06-10T15:03:09.383Z,4.40
2019-06-10T15:05:39.531Z,4.58
2019-06-10T15:08:12.467Z,5.47
2019-06-10T15:10:42.978Z,4.17
2019-06-10T15:13:13.894Z,5.08
2019-06-10T15:15:44.595Z,2.87
2019-06-10T15:18:17.979Z,4.22
2019-06-10T15:20:47.322Z,4.42
2019-06-10T15:23:19.122Z,2.75
2019-06-10T15:25:53.177Z,3.15
2019-06-10T15:28:23.656Z,3.47
2019-06-10T15:30:54.826Z,4.08
2019-06-10T15:33:26.469Z,5.17
2019-06-10T15:36:17.400Z,5.92
2019-06-10T15:38:58.759Z,5.83
2019-06-10T15:41:28.934Z,3.40
2019-06-10T15:43:59.209Z,5.87
2019-06-10T15:46:32.226Z,5.00
2019-06-10T15:49:02.327Z,4.80
2019-06-10T15:51:33.954Z,4.78
2019-06-10T15:54:05.032Z,6.10
2019-06-10T15:56:45.630Z,3.85
2019-06-10T15:59:09.007Z,3.27
2019-06-10T16:01:43.730Z,3.45
2019-06-10T16:04:17.212Z,3.83
2019-06-10T16:06:47.730Z,3.60
2019-06-10T16:09:18.481Z,3.67
2019-06-10T16:11:49.412Z,2.90
2019-06-10T16:14:25.469Z,3.22
2019-06-10T16:16:56.382Z,7.72
2019-06-10T16:19:27.317Z,3.62
2019-06-10T16:21:58.059Z,5.67
2019-06-10T16:24:29.512Z,3.83
2019-06-10T16:27:00.485Z,4.12
2019-06-10T16:29:33.277Z,5.15
2019-06-10T16:32:03.159Z,4.70
2019-06-10T16:34:34.045Z,5.45
2019-06-10T16:37:05.651Z,4.25
2019-06-10T16:39:36.429Z,4.47
2019-06-10T16:42:07.912Z,4.00
2019-06-10T16:44:39.590Z,4.70
2019-06-10T16:47:12.946Z,3.87
2019-06-10T16:49:43.701Z,2.98
2019-06-10T16:52:19.970Z,5.08
2019-06-10T16:54:52.496Z,4.37
2019-06-10T16:57:24.335Z,4.17
2019-06-10T16:59:54.681Z,5.97
2019-06-10T17:02:26.712Z,5.85
2019-06-10T17:04:58.473Z,6.92
2019-06-10T17:07:29.625Z,4.67
2019-06-10T17:10:02.351Z,5.70
2019-06-10T17:12:33.097Z,4.67
2019-06-10T17:15:03.768Z,5.67
2019-06-10T17:17:33.823Z,5.90
2019-06-10T17:20:05.295Z,5.28
2019-06-10T17:22:36.004Z,5.40
2019-06-10T17:25:06.644Z,7.62
2019-06-10T17:27:37.327Z,5.25
2019-06-10T17:30:08.170Z,5.85
2019-06-10T17:32:38.851Z,6.33
2019-06-10T17:35:09.627Z,6.53
2019-06-10T17:37:43.068Z,7.67
2019-06-10T17:40:12.968Z,6.35
2019-06-10T17:42:43.801Z,6.60
2019-06-10T17:45:15.573Z,6.12
2019-06-10T17:47:46.571Z,5.12
2019-06-10T17:50:17.339Z,7.58
2019-06-10T17:52:49.947Z,7.08
2019-06-10T17:55:23.322Z,5.45
2019-06-10T17:57:52.656Z,7.37
2019-06-10T18:00:25.017Z,6.00
2019-06-10T18:02:55.343Z,4.97
2019-06-10T18:05:27.176Z,8.63
2019-06-10T18:07:58.004Z,7.70
2019-06-10T18:10:29.715Z,5.15
2019-06-10T18:13:12.775Z,4.97
2019-06-10T18:15:35.431Z,5.97
2019-06-10T18:18:04.476Z,8.58
2019-06-10T18:20:36.971Z,6.03
2019-06-10T18:23:07.465Z,5.33
2019-06-10T18:25:38.146Z,4.40
2019-06-10T18:28:08.798Z,5.90
2019-06-10T18:30:39.589Z,5.97
2019-06-10T18:33:10.250Z,7.30
2019-06-10T18:35:42.310Z,5.40
2019-06-10T18:38:13.128Z,3.72
2019-06-10T18:40:43.836Z,5.80
2019-06-10T18:43:14.510Z,6.30
2019-06-10T18:45:45.205Z,6.83
2019-06-10T18:48:15.945Z,4.87
2019-06-10T18:50:46.637Z,8.25
2019-06-10T18:53:17.266Z,5.55
2019-06-10T18:55:50.849Z,5.97
2019-06-10T18:58:22.183Z,7.37
2019-06-10T19:01:00.780Z,6.62
2019-06-10T19:03:24.227Z,8.20
2019-06-10T19:05:55.325Z,5.35
2019-06-10T19:08:25.974Z,5.00
2019-06-10T19:10:57.177Z,5.12
2019-06-10T19:13:27.871Z,6.45
2019-06-10T19:15:58.659Z,6.40
2019-06-10T19:18:29.937Z,5.05
2019-06-10T19:21:03.576Z,7.97
2019-06-10T19:23:36.347Z,6.08
2019-06-10T19:26:06.396Z,6.12
2019-06-10T19:28:38.532Z,6.15
2019-06-10T19:31:09.301Z,5.50
2019-06-10T19:33:41.336Z,5.03
2019-06-10T19:36:13.064Z,5.83
2019-06-10T19:38:44.398Z,8.15
2019-06-10T19:41:15.533Z,5.50
2019-06-10T19:43:46.196Z,6.85
2019-06-10T19:46:16.985Z,4.45
2019-06-10T19:48:56.835Z,5.65
2019-06-10T19:51:19.719Z,5.15
2019-06-10T19:53:52.546Z,7.15
2019-06-10T19:56:25.692Z,6.62
2019-06-10T19:58:55.165Z,6.35
2019-06-10T20:01:25.822Z,6.08
2019-06-10T20:03:56.494Z,6.30
2019-06-10T20:06:27.187Z,4.83
2019-06-10T20:08:57.852Z,7.62
2019-06-10T20:11:28.565Z,5.28
2019-06-10T20:13:59.324Z,6.75
2019-06-10T20:16:30.013Z,6.75
2019-06-10T20:19:02.858Z,9.95
2019-06-10T20:21:32.981Z,8.30
2019-06-10T20:24:03.651Z,5.85
2019-06-10T20:26:34.361Z,5.62
2019-06-10T20:29:05.048Z,7.37
2019-06-10T20:31:35.816Z,6.87
2019-06-10T20:34:06.501Z,4.92
2019-06-10T20:36:37.415Z,8.30
2019-06-10T20:39:08.820Z,6.47
2019-06-10T20:41:39.546Z,6.20
2019-06-10T20:44:10.275Z,9.30
2019-06-10T20:46:43.074Z,5.53
2019-06-10T20:49:13.531Z,7.42
2019-06-10T20:51:58.706Z,4.90
2019-06-10T20:54:16.364Z,10.20
2019-06-10T20:56:49.146Z,6.22
2019-06-10T20:59:22.375Z,8.60
2019-06-10T21:01:53.413Z,6.97
2019-06-10T21:04:23.270Z,8.95
2019-06-10T21:06:54.579Z,6.80
2019-06-10T21:09:27.907Z,6.67
2019-06-10T21:11:58.596Z,9.23
2019-06-10T21:14:29.367Z,8.25
2019-06-10T21:17:00.115Z,9.43
2019-06-10T21:19:32.987Z,8.03
2019-06-10T21:22:03.088Z,11.08
2019-06-10T21:24:33.826Z,9.20
2019-06-10T21:27:05.648Z,7.22
2019-06-10T21:29:37.574Z,6.17
2019-06-10T21:32:08.259Z,7.50
2019-06-10T21:34:43.138Z,6.78
2019-06-10T21:37:12.683Z,9.55
2019-06-10T21:39:44.771Z,7.58
2019-06-10T21:42:15.691Z,8.93
2019-06-10T21:44:46.537Z,8.33
2019-06-10T21:47:17.386Z,9.80
2019-06-10T21:49:48.406Z,9.58
2019-06-10T21:52:19.475Z,9.58
2019-06-10T21:54:52.792Z,6.20
2019-06-10T21:57:24.705Z,7.03
2019-06-10T21:59:57.153Z,8.45
2019-06-10T22:02:28.686Z,7.10
2019-06-10T22:04:59.360Z,7.70
2019-06-10T22:07:30.002Z,7.65
2019-06-10T22:10:03.742Z,8.35
2019-06-10T22:12:34.425Z,7.50
2019-06-10T22:15:06.373Z,7.65
2019-06-10T22:17:37.108Z,8.70
2019-06-10T22:20:07.972Z,6.92
2019-06-10T22:22:38.652Z,12.18
2019-06-10T22:25:13.009Z,7.85
2019-06-10T22:27:42.584Z,10.58
2019-06-10T22:30:13.813Z,8.53
2019-06-10T22:32:45.227Z,7.90
2019-06-10T22:35:15.908Z,7.92
2019-06-10T22:37:47.695Z,10.43
2019-06-10T22:40:22.440Z,8.95
2019-06-10T22:42:55.139Z,11.05
2019-06-10T22:45:26.523Z,11.80
2019-06-10T22:47:59.584Z,10.85
2019-06-10T22:50:32.339Z,9.40
2019-06-10T22:53:03.940Z,13.15
2019-06-10T22:55:39.635Z,10.05
2019-06-10T22:58:10.325Z,13.90
2019-06-10T23:00:43.499Z,10.90
2019-06-10T23:03:13.255Z,10.60
2019-06-10T23:05:44.084Z,24.50
2019-06-10T23:08:14.764Z,11.18
2019-06-10T23:10:46.721Z,13.60
2019-06-10T23:13:18.646Z,9.80
2019-06-10T23:15:53.940Z,10.82
2019-06-10T23:18:24.062Z,6.78
2019-06-10T23:20:57.451Z,7.12
2019-06-10T23:23:28.021Z,8.95
2019-06-10T23:25:58.686Z,10.08
2019-06-10T23:28:32.571Z,12.47
2019-06-10T23:31:04.921Z,10.50
2019-06-10T23:33:34.795Z,12.30
2019-06-10T23:36:05.463Z,12.85
2019-06-10T23:38:36.117Z,9.40
2019-06-10T23:41:06.801Z,8.48
2019-06-10T23:43:37.475Z,8.20
2019-06-10T23:46:08.125Z,11.22
2019-06-10T23:48:38.797Z,8.85
2019-06-10T23:51:11.719Z,10.13
2019-06-10T23:53:41.484Z,8.93
2019-06-10T23:56:12.810Z,9.35
2019-06-10T23:58:43.645Z,10.78
